Latest Coastal Weather Observations for Smithton

IDT60701

Issued at 3:52 am EST Friday 1 July 2016 (issued every 10 minutes, with the page automatically refreshed every 10 minutes)

About coastal observations | Map of coastal stations | Coastal observations for TAS | Marine services | Other Formats
Station Details ID: 091292 Name: SMITHTON AERODROME Lat: -40.83 Lon: 145.08 Height: 7.5 m
Data from the previous 72 hours. | See also: Recent months at Smithton
Date/Time
EST
Temp
°C
Wind Pressure Rain since
9am
mm
Weather Cloud Vis
km
Sea
Height
m
Swell
Dir  Spd
kts
Gust
kts
hPa Trend Height
m
Period
s
Dir
01/03:30am 5.8 WSW 5 6 1010.3 - 8.4 - - - - - - -
01/03:00am 6.2 SW 5 6 1010.0 - 8.4 - - - - - - -
01/02:30am 7.0 SSW 4 5 1009.6 - 8.4 - - - - - - -
01/02:00am 8.4 SSW 7 9 1009.1 - 8.4 - - - - - - -
01/01:30am 8.6 SW 10 13 1008.7 - 8.4 - - - - - - -
01/01:00am 7.0 SSW 6 7 1008.0 - 8.2 - - - - - - -
01/12:30am 6.2 SSW 6 7 1007.3 - 8.2 - - - - - - -
01/12:00am 7.6 S 7 8 1007.0 - 8.2 - - - - - - -
 
Date/Time
EST
Temp
°C
Wind Pressure Rain since
9am
mm
Weather Cloud Vis
km
Sea
Height
m
Swell
Dir  Spd
kts
Gust
kts
hPa Trend Height
m
Period
s
Dir
30/11:30pm 7.9 S 7 9 1006.7 - 8.2 - - - - - - -
30/11:00pm 7.9 SSW 8 9 1006.4 - 8.2 - - - - - - -
30/10:30pm 6.9 W 5 6 1006.1 - 8.2 - - - - - - -
30/10:00pm 6.6 W 4 6 1005.4 - 8.2 - - - - - - -
30/09:30pm 7.0 W 2 4 1004.9 - 8.2 - - - - - - -
30/09:00pm 8.3 WNW 4 6 1004.6 - 8.2 - - - - - - -
30/08:30pm 9.3 NNW 6 8 1004.2 - 8.2 - - - - - - -
30/08:00pm 9.3 WNW 8 10 1004.0 - 7.8 - - - - - - -
30/07:30pm 9.1 NNW 4 5 1003.5 - 7.2 - - - - - - -
30/07:00pm 8.3 NNW 6 6 1003.0 - 7.2 - - - - - - -
30/06:30pm 8.6 NW 3 4 1002.7 - 7.2 - - - - - - -
30/06:00pm 9.5 WNW 3 4 1002.2 - 7.2 - - - - - - -
30/05:30pm 10.3 WNW 7 13 1001.7 - 7.0 - - - - - - -
30/05:00pm 10.6 N 10 14 1001.3 - 6.4 - - - - - - -
30/04:30pm 10.5 N 13 19 1001.3 - 6.0 - - - - - - -
30/04:00pm 10.6 NNW 11 18 1001.4 - 5.6 - - - - - - -
30/03:30pm 11.3 NNW 14 19 1001.4 - 2.8 - - - - - - -
30/03:00pm 11.4 N 13 17 1001.4 - 2.8 - - - - - - -
30/02:30pm 11.3 NNW 16 22 1001.6 - 2.8 - - - - - - -
30/02:00pm 10.9 NNW 15 21 1001.8 - 2.8 - - - - - - -
30/01:30pm 11.7 NNW 18 25 1001.8 - 2.6 - - - - - - -
30/01:19pm 11.5 NNW 15 25 1001.9 - 2.6 - - - - - - -
30/01:00pm 11.3 N 16 22 1002.0 - 2.6 - - - - - - -
30/12:30pm 10.8 N 17 24 1002.5 - 2.6 - - - - - - -
30/12:00pm 10.5 N 18 24 1003.2 - 2.6 - - - - - - -
30/11:30am 10.5 N 17 24 1003.8 - 2.6 - - - - - - -
30/11:00am 10.3 N 19 28 1004.3 - 2.4 - - - - - - -
30/10:30am 10.5 N 18 26 1004.6 - 1.8 - - - - - - -
30/10:00am 10.5 N 15 25 1005.1 - 1.0 - - - - - - -
30/09:59am 10.5 N 15 25 1005.1 - 1.0 - - - - - - -
30/09:30am 10.7 N 17 24 1005.3 - 0.8 - - - - - - -
30/09:00am 10.6 N 16 23 1005.7 - 3.6 - - - - - - -
30/08:30am 10.6 N 14 19 1006.1 - 3.2 - - - - - - -
30/08:00am 10.7 N 15 21 1006.5 - 2.8 - - - - - - -
30/07:44am 10.7 N 18 28 1006.7 - 2.6 - - - - - - -
30/07:30am 11.0 N 21 28 1006.6 - 2.6 - - - - - - -
30/07:02am 11.8 N 19 33 1006.5 - 2.2 - - - - - - -
30/07:00am 11.8 N 19 28 1006.7 - 2.2 - - - - - - -
30/06:52am 11.6 N 17 27 1006.9 - 2.2 - - - - - - -
30/06:30am 11.8 N 18 25 1007.2 - 2.2 - - - - - - -
30/06:19am 11.7 N 19 29 1007.4 - 2.2 - - - - - - -
30/06:00am 11.9 N 20 29 1007.4 - 2.2 - - - - - - -
30/05:30am 11.7 N 19 31 1008.0 - 2.0 - - - - - - -
30/05:01am 11.4 N 16 26 1008.5 - 2.0 - - - - - - -
30/05:00am 11.3 N 17 26 1008.5 - 2.0 - - - - - - -
30/04:30am 11.0 N 15 21 1009.1 - 2.0 - - - - - - -
30/04:00am 10.6 N 18 29 1009.9 - 1.2 - - - - - - -
30/03:30am 11.5 N 21 31 1010.4 - 1.2 - - - - - - -
30/03:16am 12.2 N 19 29 1010.5 - 1.2 - - - - - - -
30/03:00am 12.3 N 18 27 1010.8 - 1.2 - - - - - - -
30/02:54am 12.2 N 18 28 1011.0 - 1.2 - - - - - - -
30/02:30am 12.2 N 17 25 1011.6 - 1.2 - - - - - - -
30/02:00am 12.2 N 17 26 1012.1 - 1.2 - - - - - - -
30/01:30am 11.9 N 16 21 1012.6 - 1.2 - - - - - - -
30/01:00am 11.9 N 18 23 1012.9 - 1.2 - - - - - - -
30/12:30am 11.9 N 15 20 1013.7 - 1.2 - - - - - - -
30/12:00am 11.9 N 15 22 1014.5 - 1.2 - - - - - - -
 
Date/Time
EST
Temp
°C
Wind Pressure Rain since
9am
mm
Weather Cloud Vis
km
Sea
Height
m
Swell
Dir  Spd
kts
Gust
kts
hPa Trend Height
m
Period
s
Dir
29/11:30pm 11.9 N 14 19 1015.1 - 1.2 - - - - - - -
29/11:00pm 11.5 N 14 21 1015.6 - 1.2 - - - - - - -
29/10:30pm 11.6 N 14 21 1015.9 - 1.2 - - - - - - -
29/10:00pm 11.8 N 14 22 1016.3 - 1.2 - - - - - - -
29/09:30pm 12.0 N 13 17 1016.7 - 1.2 - - - - - - -
29/09:00pm 11.9 N 12 16 1016.9 - 1.2 - - - - - - -
29/08:30pm 11.8 N 9 13 1017.2 - 1.2 - - - - - - -
29/08:00pm 11.9 N 12 16 1017.4 - 1.2 - - - - - - -
29/07:30pm 11.8 N 8 11 1017.6 - 1.2 - - - - - - -
29/07:00pm 11.1 N 9 13 1017.9 - 1.2 - - - - - - -
29/06:30pm 11.2 N 7 9 1018.2 - 1.2 - - - - - - -
29/06:00pm 11.4 N 7 9 1018.4 - 1.2 - - - - - - -
29/05:30pm 11.2 NNW 7 9 1018.6 - 1.2 - - - - - - -
29/05:00pm 11.2 NNW 6 9 1018.8 - 1.2 - - - - - - -
29/04:30pm 11.4 NNW 6 7 1019.1 - 1.2 - - - - - - -
29/04:00pm 12.3 NNW 8 11 1019.4 - 1.2 - - - - - - -
29/03:30pm 13.0 NW 2 5 1019.6 - 1.2 - - - - - - -
29/03:00pm 12.2 NW 3 5 1020.0 - 1.2 - - - - - - -
29/02:30pm 11.4 NW 6 8 1020.2 - 1.0 - - - - - - -
29/02:00pm 11.2 NW 13 21 1020.6 - 0.8 - - - - - - -
29/01:58pm 11.2 NW 15 25 1020.6 - 0.6 - - - - - - -
29/01:30pm 14.0 NW 13 17 1020.6 - 0.0 - - - - - - -
29/01:00pm 14.5 NW 14 18 1020.8 - 0.0 - - - - - - -
29/12:30pm 15.9 NW 11 16 1021.2 - 0.0 - - - - - - -
29/12:00pm 15.7 WNW 11 14 1021.6 - 0.0 - - - - - - -
29/11:30am 15.3 WNW 9 13 1022.0 - 0.0 - - - - - - -
29/11:00am 14.7 NW 5 7 1022.5 - 0.0 - - - - - - -
29/10:30am 14.1 NW 6 8 1022.6 - 0.0 - - - - - - -
29/10:00am 12.5 WNW 5 7 1022.6 - 0.0 - - - - - - -
29/09:30am 9.5 CALM 0 4 1022.7 - 0.0 - - - - - - -
29/09:00am 7.5 CALM 0 0 1022.7 - 2.2 - - - - - - -
29/08:30am 6.5 W 1 4 1022.5 - 2.2 - - - - - - -
29/08:00am 6.7 W 1 4 1022.3 - 2.2 - - - - - - -
29/07:30am 7.4 W 4 6 1021.9 - 2.2 - - - - - - -
29/07:00am 9.3 W 7 8 1021.6 - 2.2 - - - - - - -
29/06:30am 9.9 W 8 9 1021.4 - 2.2 - - - - - - -
29/06:00am 9.9 WSW 8 9 1021.1 - 2.2 - - - - - - -
29/05:30am 10.0 W 8 9 1020.9 - 2.2 - - - - - - -
29/05:00am 10.5 W 9 12 1020.7 - 2.2 - - - - - - -
29/04:30am 11.4 W 12 15 1020.5 - 2.2 - - - - - - -
29/04:00am 10.8 W 10 13 1020.5 - 2.2 - - - - - - -
29/03:30am 10.6 W 10 13 1020.7 - 2.2 - - - - - - -
29/03:00am 10.3 WNW 8 11 1020.8 - 2.2 - - - - - - -
29/02:30am 10.2 W 5 7 1020.8 - 2.2 - - - - - - -
29/02:00am 10.0 W 9 11 1020.8 - 2.2 - - - - - - -
29/01:30am 10.2 W 8 11 1020.7 - 2.2 - - - - - - -
29/01:00am 10.5 WNW 6 7 1020.8 - 2.2 - - - - - - -
29/12:30am 11.0 NW 8 10 1020.7 - 2.2 - - - - - - -
29/12:00am 12.3 W 12 19 1020.7 - 1.4 - - - - - - -
 
Date/Time
EST
Temp
°C
Wind Pressure Rain since
9am
mm
Weather Cloud Vis
km
Sea
Height
m
Swell
Dir  Spd
kts
Gust
kts
hPa Trend Height
m
Period
s
Dir
28/11:30pm 11.0 W 8 11 1020.8 - 1.4 - - - - - - -
28/11:00pm 11.1 W 9 14 1020.9 - 1.4 - - - - - - -
28/10:30pm 11.2 W 8 11 1020.7 - 1.4 - - - - - - -
28/10:00pm 11.8 W 11 15 1020.7 - 1.4 - - - - - - -
28/09:30pm 12.1 WNW 9 11 1020.7 - 1.4 - - - - - - -
28/09:00pm 10.3 WNW 6 7 1020.5 - 1.4 - - - - - - -
28/08:30pm 11.1 WNW 6 7 1020.4 - 1.4 - - - - - - -
28/08:00pm 11.8 WNW 8 9 1020.3 - 1.4 - - - - - - -
28/07:30pm 11.5 W 8 9 1020.1 - 1.4 - - - - - - -
28/07:00pm 11.5 W 8 9 1020.0 - 1.2 - - - - - - -
28/06:30pm 11.9 W 10 13 1019.8 - 1.2 - - - - - - -
28/06:00pm 12.2 W 11 15 1019.5 - 1.2 - - - - - - -
28/05:30pm 12.3 W 11 14 1019.3 - 1.2 - - - - - - -
28/05:00pm 12.6 W 11 14 1019.1 - 1.2 - - - - - - -
28/04:30pm 12.6 W 11 15 1019.0 - 1.2 - - - - - - -
28/04:00pm 13.5 W 14 18 1018.8 - 1.0 - - - - - - -
28/03:30pm 14.4 W 13 21 1018.6 - 1.0 - - - - - - -
28/03:00pm 14.4 WSW 13 18 1018.3 - 1.0 - - - - - - -
28/02:30pm 14.7 W 12 18 1018.2 - 0.8 - - - - - - -
28/02:00pm 13.5 W 17 22 1018.0 - 0.8 - - - - - - -
28/01:30pm 15.3 W 13 19 1018.1 - 0.8 - - - - - - -
28/01:00pm 14.5 W 16 23 1018.3 - 0.8 - - - - - - -
28/12:48pm 14.3 W 16 28 1018.2 - 0.8 - - - - - - -
28/12:30pm 14.9 W 15 19 1018.3 - 0.6 - - - - - - -
28/12:00pm 13.6 W 14 19 1018.4 - 0.6 - - - - - - -
28/11:30am 14.6 WNW 13 16 1018.6 - 0.0 - - - - - - -
28/11:00am 13.8 WNW 12 15 1018.7 - 0.0 - - - - - - -
28/10:30am 13.2 W 9 12 1018.7 - 0.0 - - - - - - -
28/10:00am 12.8 W 14 20 1018.5 - 0.0 - - - - - - -
28/09:30am 12.5 W 9 15 1018.3 - 0.0 - - - - - - -
28/09:00am 11.7 WNW 8 13 1018.0 - 3.6 - - - - - - -
28/08:30am 9.8 CALM 0 0 1017.7 - 3.6 - - - - - - -
28/08:00am 9.7 WSW 3 4 1017.6 - 3.6 - - - - - - -
28/07:30am 9.9 W 5 6 1017.2 - 3.6 - - - - - - -
28/07:00am 11.0 W 8 12 1017.0 - 3.6 - - - - - - -
28/06:30am 10.7 W 8 11 1016.8 - 3.0 - - - - - - -
28/06:00am 9.8 W 7 10 1016.4 - 2.6 - - - - - - -
28/05:30am 8.8 CALM 0 0 1016.0 - 2.6 - - - - - - -
28/05:00am 9.2 W 2 4 1015.9 - 2.6 - - - - - - -
28/04:30am 10.2 W 6 8 1015.8 - 2.6 - - - - - - -
28/04:00am 10.7 W 10 12 1016.0 - 2.2 - - - - - - -

Other Formats:

Comma delimited format used in spreadsheet applications
http://www.bom.gov.au/fwo/IDT60701/IDT60701.94953.axf

JavaScript Object Notation format (JSON) in row-major order
http://www.bom.gov.au/fwo/IDT60701/IDT60701.94953.json